sensor_id;sensor_type;location;lat;lon;timestamp;P1;durP1;ratioP1;P2;durP2;ratioP2
70545;SDS011;58098;51.680;5.134;2022-08-24T00:00:26;19.83;;;15.50;;
70545;SDS011;58098;51.680;5.134;2022-08-24T00:02:51;19.10;;;15.57;;
70545;SDS011;58098;51.680;5.134;2022-08-24T00:05:17;20.90;;;15.93;;
70545;SDS011;58098;51.680;5.134;2022-08-24T00:07:45;26.23;;;17.80;;
70545;SDS011;58098;51.680;5.134;2022-08-24T00:10:11;24.83;;;16.67;;
70545;SDS011;58098;51.680;5.134;2022-08-24T00:12:37;24.98;;;17.20;;
70545;SDS011;58098;51.680;5.134;2022-08-24T00:15:03;21.13;;;15.80;;
70545;SDS011;58098;51.680;5.134;2022-08-24T00:17:29;24.90;;;16.67;;
70545;SDS011;58098;51.680;5.134;2022-08-24T00:19:54;24.97;;;17.37;;
70545;SDS011;58098;51.680;5.134;2022-08-24T00:22:19;25.30;;;19.17;;
70545;SDS011;58098;51.680;5.134;2022-08-24T00:24:44;24.30;;;16.50;;
70545;SDS011;58098;51.680;5.134;2022-08-24T00:27:10;23.63;;;16.60;;
70545;SDS011;58098;51.680;5.134;2022-08-24T00:29:36;21.25;;;15.85;;
70545;SDS011;58098;51.680;5.134;2022-08-24T00:32:02;24.40;;;17.95;;
70545;SDS011;58098;51.680;5.134;2022-08-24T00:34:27;22.97;;;16.20;;
70545;SDS011;58098;51.680;5.134;2022-08-24T00:36:53;20.73;;;15.73;;
70545;SDS011;58098;51.680;5.134;2022-08-24T00:39:19;19.80;;;15.30;;
70545;SDS011;58098;51.680;5.134;2022-08-24T00:41:45;21.43;;;13.97;;
70545;SDS011;58098;51.680;5.134;2022-08-24T00:44:10;21.70;;;15.57;;
70545;SDS011;58098;51.680;5.134;2022-08-24T00:49:10;15.55;;;12.13;;
70545;SDS011;58098;51.680;5.134;2022-08-24T00:51:38;16.92;;;13.35;;
70545;SDS011;58098;51.680;5.134;2022-08-24T00:54:06;16.75;;;12.57;;
70545;SDS011;58098;51.680;5.134;2022-08-24T00:56:33;21.23;;;13.93;;
70545;SDS011;58098;51.680;5.134;2022-08-24T00:59:01;24.57;;;15.33;;
70545;SDS011;58098;51.680;5.134;2022-08-24T01:01:28;21.10;;;15.63;;
70545;SDS011;58098;51.680;5.134;2022-08-24T01:03:55;19.55;;;14.40;;
70545;SDS011;58098;51.680;5.134;2022-08-24T01:06:21;22.85;;;15.25;;
70545;SDS011;58098;51.680;5.134;2022-08-24T01:08:46;18.80;;;14.37;;
70545;SDS011;58098;51.680;5.134;2022-08-24T01:11:13;21.23;;;15.57;;
70545;SDS011;58098;51.680;5.134;2022-08-24T01:13:40;18.90;;;15.25;;
70545;SDS011;58098;51.680;5.134;2022-08-24T01:16:07;24.50;;;15.30;;
70545;SDS011;58098;51.680;5.134;2022-08-24T01:18:32;23.23;;;15.80;;
70545;SDS011;58098;51.680;5.134;2022-08-24T01:21:24;19.83;;;14.43;;
70545;SDS011;58098;51.680;5.134;2022-08-24T01:23:58;24.10;;;16.45;;
70545;SDS011;58098;51.680;5.134;2022-08-24T01:26:26;21.70;;;16.25;;
70545;SDS011;58098;51.680;5.134;2022-08-24T01:28:54;22.08;;;15.45;;
70545;SDS011;58098;51.680;5.134;2022-08-24T01:31:20;20.80;;;15.30;;
70545;SDS011;58098;51.680;5.134;2022-08-24T01:33:47;18.63;;;13.60;;
70545;SDS011;58098;51.680;5.134;2022-08-24T01:36:16;20.63;;;14.25;;
70545;SDS011;58098;51.680;5.134;2022-08-24T01:38:43;20.85;;;15.27;;
70545;SDS011;58098;51.680;5.134;2022-08-24T01:41:08;22.98;;;16.00;;
70545;SDS011;58098;51.680;5.134;2022-08-24T01:43:33;22.53;;;16.47;;
70545;SDS011;58098;51.680;5.134;2022-08-24T01:45:59;21.40;;;16.10;;
70545;SDS011;58098;51.680;5.134;2022-08-24T01:48:24;22.13;;;17.10;;
70545;SDS011;58098;51.680;5.134;2022-08-24T01:50:49;26.60;;;17.37;;
70545;SDS011;58098;51.680;5.134;2022-08-24T01:53:14;21.77;;;16.43;;
70545;SDS011;58098;51.680;5.134;2022-08-24T01:55:40;25.03;;;17.17;;
70545;SDS011;58098;51.680;5.134;2022-08-24T01:58:05;26.20;;;17.77;;
70545;SDS011;58098;51.680;5.134;2022-08-24T02:00:31;23.20;;;17.27;;
70545;SDS011;58098;51.680;5.134;2022-08-24T02:02:56;23.37;;;17.03;;
70545;SDS011;58098;51.680;5.134;2022-08-24T02:05:22;22.50;;;14.97;;
70545;SDS011;58098;51.680;5.134;2022-08-24T02:07:48;24.08;;;17.40;;
70545;SDS011;58098;51.680;5.134;2022-08-24T02:10:13;29.17;;;17.63;;
70545;SDS011;58098;51.680;5.134;2022-08-24T02:12:40;25.60;;;17.43;;
70545;SDS011;58098;51.680;5.134;2022-08-24T02:15:06;29.05;;;20.20;;
70545;SDS011;58098;51.680;5.134;2022-08-24T02:17:32;22.93;;;17.93;;
70545;SDS011;58098;51.680;5.134;2022-08-24T02:19:59;26.73;;;19.27;;
70545;SDS011;58098;51.680;5.134;2022-08-24T02:22:24;28.93;;;19.87;;
70545;SDS011;58098;51.680;5.134;2022-08-24T02:24:49;26.70;;;18.10;;
70545;SDS011;58098;51.680;5.134;2022-08-24T02:27:14;26.83;;;19.60;;
70545;SDS011;58098;51.680;5.134;2022-08-24T02:29:40;27.07;;;18.87;;
70545;SDS011;58098;51.680;5.134;2022-08-24T02:32:05;25.27;;;18.50;;
70545;SDS011;58098;51.680;5.134;2022-08-24T02:34:31;27.87;;;19.00;;
70545;SDS011;58098;51.680;5.134;2022-08-24T02:36:56;23.25;;;17.00;;
70545;SDS011;58098;51.680;5.134;2022-08-24T02:39:21;26.40;;;17.73;;
70545;SDS011;58098;51.680;5.134;2022-08-24T02:41:47;27.23;;;18.73;;
70545;SDS011;58098;51.680;5.134;2022-08-24T02:44:12;27.43;;;19.33;;
70545;SDS011;58098;51.680;5.134;2022-08-24T02:46:37;25.73;;;17.67;;
70545;SDS011;58098;51.680;5.134;2022-08-24T02:49:03;27.33;;;17.43;;
70545;SDS011;58098;51.680;5.134;2022-08-24T02:51:29;25.60;;;17.73;;
70545;SDS011;58098;51.680;5.134;2022-08-24T02:53:55;25.50;;;17.63;;
70545;SDS011;58098;51.680;5.134;2022-08-24T02:56:20;25.48;;;17.23;;
70545;SDS011;58098;51.680;5.134;2022-08-24T02:58:46;25.13;;;17.33;;
70545;SDS011;58098;51.680;5.134;2022-08-24T03:01:11;23.70;;;15.60;;
70545;SDS011;58098;51.680;5.134;2022-08-24T03:03:37;20.10;;;14.20;;
70545;SDS011;58098;51.680;5.134;2022-08-24T03:06:03;21.00;;;14.53;;
70545;SDS011;58098;51.680;5.134;2022-08-24T03:08:28;21.98;;;15.02;;
70545;SDS011;58098;51.680;5.134;2022-08-24T03:10:53;20.40;;;14.33;;
70545;SDS011;58098;51.680;5.134;2022-08-24T03:13:18;17.40;;;13.13;;
70545;SDS011;58098;51.680;5.134;2022-08-24T03:15:44;17.93;;;13.03;;
70545;SDS011;58098;51.680;5.134;2022-08-24T03:18:10;16.95;;;13.05;;
70545;SDS011;58098;51.680;5.134;2022-08-24T03:20:35;18.97;;;13.63;;
70545;SDS011;58098;51.680;5.134;2022-08-24T03:23:00;16.17;;;12.60;;
70545;SDS011;58098;51.680;5.134;2022-08-24T03:25:27;21.25;;;16.13;;
70545;SDS011;58098;51.680;5.134;2022-08-24T03:27:53;18.20;;;13.87;;
70545;SDS011;58098;51.680;5.134;2022-08-24T03:30:19;23.90;;;14.47;;
70545;SDS011;58098;51.680;5.134;2022-08-24T03:32:45;19.20;;;14.02;;
70545;SDS011;58098;51.680;5.134;2022-08-24T03:35:10;20.57;;;15.57;;
70545;SDS011;58098;51.680;5.134;2022-08-24T03:37:35;22.27;;;15.20;;
70545;SDS011;58098;51.680;5.134;2022-08-24T03:40:01;20.55;;;14.85;;
70545;SDS011;58098;51.680;5.134;2022-08-24T03:42:26;20.00;;;15.13;;
70545;SDS011;58098;51.680;5.134;2022-08-24T03:44:52;21.50;;;15.20;;
70545;SDS011;58098;51.680;5.134;2022-08-24T03:47:17;21.63;;;14.70;;
70545;SDS011;58098;51.680;5.134;2022-08-24T03:49:44;23.98;;;16.38;;
70545;SDS011;58098;51.680;5.134;2022-08-24T03:52:09;24.08;;;15.98;;
70545;SDS011;58098;51.680;5.134;2022-08-24T03:54:34;21.53;;;15.07;;
70545;SDS011;58098;51.680;5.134;2022-08-24T03:57:00;23.93;;;16.13;;
70545;SDS011;58098;51.680;5.134;2022-08-24T03:59:25;25.07;;;17.03;;
70545;SDS011;58098;51.680;5.134;2022-08-24T04:01:50;26.80;;;16.80;;
70545;SDS011;58098;51.680;5.134;2022-08-24T04:04:16;22.53;;;16.23;;
70545;SDS011;58098;51.680;5.134;2022-08-24T04:06:41;20.43;;;14.50;;
70545;SDS011;58098;51.680;5.134;2022-08-24T04:09:08;20.50;;;14.75;;
70545;SDS011;58098;51.680;5.134;2022-08-24T04:11:34;19.77;;;14.67;;
70545;SDS011;58098;51.680;5.134;2022-08-24T04:13:59;19.30;;;14.07;;
70545;SDS011;58098;51.680;5.134;2022-08-24T04:16:25;18.97;;;13.47;;
70545;SDS011;58098;51.680;5.134;2022-08-24T04:18:50;20.50;;;13.98;;
70545;SDS011;58098;51.680;5.134;2022-08-24T04:21:16;21.27;;;14.67;;
70545;SDS011;58098;51.680;5.134;2022-08-24T04:23:41;19.27;;;14.52;;
70545;SDS011;58098;51.680;5.134;2022-08-24T04:26:07;20.97;;;14.87;;
70545;SDS011;58098;51.680;5.134;2022-08-24T04:28:32;22.70;;;17.20;;
70545;SDS011;58098;51.680;5.134;2022-08-24T04:30:57;24.17;;;15.53;;
70545;SDS011;58098;51.680;5.134;2022-08-24T04:33:24;22.48;;;16.35;;
70545;SDS011;58098;51.680;5.134;2022-08-24T04:35:49;23.23;;;15.87;;
70545;SDS011;58098;51.680;5.134;2022-08-24T04:38:16;22.00;;;15.77;;
70545;SDS011;58098;51.680;5.134;2022-08-24T04:40:41;23.13;;;14.50;;
70545;SDS011;58098;51.680;5.134;2022-08-24T04:43:07;18.63;;;13.33;;
70545;SDS011;58098;51.680;5.134;2022-08-24T04:45:34;21.40;;;13.52;;
70545;SDS011;58098;51.680;5.134;2022-08-24T04:48:01;19.35;;;12.35;;
70545;SDS011;58098;51.680;5.134;2022-08-24T04:50:27;15.70;;;12.47;;
70545;SDS011;58098;51.680;5.134;2022-08-24T04:52:52;19.40;;;13.20;;
70545;SDS011;58098;51.680;5.134;2022-08-24T04:55:17;20.27;;;13.43;;
70545;SDS011;58098;51.680;5.134;2022-08-24T04:57:42;18.77;;;13.83;;
70545;SDS011;58098;51.680;5.134;2022-08-24T05:00:08;22.93;;;14.93;;
70545;SDS011;58098;51.680;5.134;2022-08-24T05:02:36;17.40;;;13.70;;
70545;SDS011;58098;51.680;5.134;2022-08-24T05:05:04;23.75;;;15.02;;
70545;SDS011;58098;51.680;5.134;2022-08-24T05:07:29;18.17;;;13.47;;
70545;SDS011;58098;51.680;5.134;2022-08-24T05:09:54;16.90;;;12.83;;
70545;SDS011;58098;51.680;5.134;2022-08-24T05:12:20;17.27;;;12.87;;
70545;SDS011;58098;51.680;5.134;2022-08-24T05:14:45;19.10;;;12.67;;
70545;SDS011;58098;51.680;5.134;2022-08-24T05:17:10;16.97;;;12.13;;
70545;SDS011;58098;51.680;5.134;2022-08-24T05:19:35;17.07;;;12.13;;
70545;SDS011;58098;51.680;5.134;2022-08-24T05:22:00;17.80;;;12.07;;
70545;SDS011;58098;51.680;5.134;2022-08-24T05:24:26;14.77;;;11.57;;
70545;SDS011;58098;51.680;5.134;2022-08-24T05:26:51;15.73;;;11.97;;
70545;SDS011;58098;51.680;5.134;2022-08-24T05:29:17;15.38;;;11.00;;
70545;SDS011;58098;51.680;5.134;2022-08-24T05:31:43;17.63;;;13.52;;
70545;SDS011;58098;51.680;5.134;2022-08-24T05:34:09;17.70;;;12.17;;
70545;SDS011;58098;51.680;5.134;2022-08-24T05:36:35;20.40;;;12.27;;
70545;SDS011;58098;51.680;5.134;2022-08-24T05:39:04;16.87;;;13.03;;
70545;SDS011;58098;51.680;5.134;2022-08-24T05:41:29;19.63;;;13.15;;
70545;SDS011;58098;51.680;5.134;2022-08-24T05:43:55;19.67;;;13.70;;
70545;SDS011;58098;51.680;5.134;2022-08-24T05:46:20;19.60;;;13.23;;
70545;SDS011;58098;51.680;5.134;2022-08-24T05:48:45;21.37;;;13.67;;
70545;SDS011;58098;51.680;5.134;2022-08-24T05:51:12;20.92;;;16.02;;
70545;SDS011;58098;51.680;5.134;2022-08-24T05:53:38;27.47;;;17.03;;
70545;SDS011;58098;51.680;5.134;2022-08-24T05:56:04;26.90;;;19.10;;
70545;SDS011;58098;51.680;5.134;2022-08-24T05:58:29;23.05;;;16.95;;
70545;SDS011;58098;51.680;5.134;2022-08-24T06:00:54;23.37;;;17.13;;
70545;SDS011;58098;51.680;5.134;2022-08-24T06:03:20;27.10;;;17.30;;
70545;SDS011;58098;51.680;5.134;2022-08-24T06:05:45;23.23;;;17.67;;
70545;SDS011;58098;51.680;5.134;2022-08-24T06:08:12;24.60;;;17.13;;
70545;SDS011;58098;51.680;5.134;2022-08-24T06:10:41;28.43;;;18.83;;
70545;SDS011;58098;51.680;5.134;2022-08-24T06:13:07;27.15;;;18.30;;
70545;SDS011;58098;51.680;5.134;2022-08-24T06:15:33;26.70;;;18.30;;
70545;SDS011;58098;51.680;5.134;2022-08-24T06:17:58;27.20;;;17.27;;
70545;SDS011;58098;51.680;5.134;2022-08-24T06:20:24;27.77;;;19.03;;
70545;SDS011;58098;51.680;5.134;2022-08-24T06:22:49;31.67;;;20.63;;
70545;SDS011;58098;51.680;5.134;2022-08-24T06:25:14;25.43;;;17.77;;
70545;SDS011;58098;51.680;5.134;2022-08-24T06:27:58;34.70;;;23.58;;
70545;SDS011;58098;51.680;5.134;2022-08-24T06:30:23;36.03;;;24.97;;
70545;SDS011;58098;51.680;5.134;2022-08-24T06:32:49;38.45;;;23.45;;
70545;SDS011;58098;51.680;5.134;2022-08-24T06:35:14;27.83;;;19.80;;
70545;SDS011;58098;51.680;5.134;2022-08-24T06:37:39;46.50;;;29.67;;
70545;SDS011;58098;51.680;5.134;2022-08-24T06:40:05;33.03;;;22.40;;
70545;SDS011;58098;51.680;5.134;2022-08-24T06:42:31;44.53;;;28.00;;
70545;SDS011;58098;51.680;5.134;2022-08-24T06:44:58;28.63;;;20.95;;
70545;SDS011;58098;51.680;5.134;2022-08-24T06:47:23;32.47;;;23.23;;
70545;SDS011;58098;51.680;5.134;2022-08-24T06:49:49;33.17;;;23.83;;
70545;SDS011;58098;51.680;5.134;2022-08-24T06:52:14;30.33;;;20.97;;
70545;SDS011;58098;51.680;5.134;2022-08-24T06:54:39;24.10;;;18.00;;
70545;SDS011;58098;51.680;5.134;2022-08-24T06:57:05;36.67;;;21.47;;
70545;SDS011;58098;51.680;5.134;2022-08-24T06:59:31;31.10;;;18.23;;
70545;SDS011;58098;51.680;5.134;2022-08-24T07:01:57;32.53;;;22.50;;
70545;SDS011;58098;51.680;5.134;2022-08-24T07:04:22;28.50;;;18.77;;
70545;SDS011;58098;51.680;5.134;2022-08-24T07:06:47;32.23;;;23.60;;
70545;SDS011;58098;51.680;5.134;2022-08-24T07:09:13;27.77;;;19.52;;
70545;SDS011;58098;51.680;5.134;2022-08-24T07:11:38;28.47;;;20.80;;
70545;SDS011;58098;51.680;5.134;2022-08-24T07:14:04;34.83;;;22.43;;
70545;SDS011;58098;51.680;5.134;2022-08-24T07:16:29;27.13;;;18.90;;
70545;SDS011;58098;51.680;5.134;2022-08-24T07:18:55;29.20;;;21.53;;
70545;SDS011;58098;51.680;5.134;2022-08-24T07:21:20;28.77;;;20.87;;
70545;SDS011;58098;51.680;5.134;2022-08-24T07:23:46;29.47;;;21.47;;
70545;SDS011;58098;51.680;5.134;2022-08-24T07:26:13;27.45;;;19.52;;
70545;SDS011;58098;51.680;5.134;2022-08-24T07:28:39;29.98;;;21.90;;
70545;SDS011;58098;51.680;5.134;2022-08-24T07:31:05;27.95;;;20.13;;
70545;SDS011;58098;51.680;5.134;2022-08-24T07:33:31;29.55;;;20.73;;
70545;SDS011;58098;51.680;5.134;2022-08-24T07:35:57;26.83;;;20.03;;
70545;SDS011;58098;51.680;5.134;2022-08-24T07:38:22;27.50;;;18.73;;
70545;SDS011;58098;51.680;5.134;2022-08-24T07:40:48;23.13;;;18.48;;
70545;SDS011;58098;51.680;5.134;2022-08-24T07:43:13;24.87;;;17.63;;
70545;SDS011;58098;51.680;5.134;2022-08-24T07:45:39;23.83;;;16.70;;
70545;SDS011;58098;51.680;5.134;2022-08-24T07:48:05;23.92;;;17.45;;
70545;SDS011;58098;51.680;5.134;2022-08-24T07:50:31;23.75;;;16.70;;
70545;SDS011;58098;51.680;5.134;2022-08-24T07:52:56;22.60;;;16.03;;
70545;SDS011;58098;51.680;5.134;2022-08-24T07:55:21;26.27;;;16.27;;
70545;SDS011;58098;51.680;5.134;2022-08-24T07:57:46;23.20;;;16.70;;
70545;SDS011;58098;51.680;5.134;2022-08-24T08:00:12;22.10;;;13.20;;
70545;SDS011;58098;51.680;5.134;2022-08-24T08:02:38;21.37;;;13.70;;
70545;SDS011;58098;51.680;5.134;2022-08-24T08:05:06;18.40;;;11.68;;
70545;SDS011;58098;51.680;5.134;2022-08-24T08:07:32;18.90;;;11.90;;
70545;SDS011;58098;51.680;5.134;2022-08-24T08:09:57;17.70;;;10.45;;
70545;SDS011;58098;51.680;5.134;2022-08-24T08:12:22;16.40;;;9.85;;
70545;SDS011;58098;51.680;5.134;2022-08-24T08:14:47;21.40;;;10.70;;
70545;SDS011;58098;51.680;5.134;2022-08-24T08:17:13;20.37;;;9.33;;
70545;SDS011;58098;51.680;5.134;2022-08-24T08:19:39;12.93;;;9.53;;
70545;SDS011;58098;51.680;5.134;2022-08-24T08:22:05;17.95;;;9.23;;
70545;SDS011;58098;51.680;5.134;2022-08-24T08:25:06;16.67;;;7.97;;
70545;SDS011;58098;51.680;5.134;2022-08-24T08:27:32;20.67;;;9.20;;
70545;SDS011;58098;51.680;5.134;2022-08-24T08:29:58;13.73;;;9.17;;
70545;SDS011;58098;51.680;5.134;2022-08-24T08:32:23;17.27;;;10.00;;
70545;SDS011;58098;51.680;5.134;2022-08-24T08:34:48;12.47;;;9.70;;
70545;SDS011;58098;51.680;5.134;2022-08-24T08:37:14;15.90;;;9.40;;
70545;SDS011;58098;51.680;5.134;2022-08-24T08:39:39;13.13;;;8.57;;
70545;SDS011;58098;51.680;5.134;2022-08-24T08:53:03;9.07;;;5.10;;
70545;SDS011;58098;51.680;5.134;2022-08-24T08:58:05;13.27;;;6.70;;
70545;SDS011;58098;51.680;5.134;2022-08-24T09:00:54;11.30;;;6.55;;
70545;SDS011;58098;51.680;5.134;2022-08-24T09:03:23;8.57;;;5.50;;
70545;SDS011;58098;51.680;5.134;2022-08-24T09:06:33;11.33;;;5.23;;
70545;SDS011;58098;51.680;5.134;2022-08-24T09:11:06;7.97;;;4.15;;
70545;SDS011;58098;51.680;5.134;2022-08-24T09:21:41;7.72;;;4.47;;
70545;SDS011;58098;51.680;5.134;2022-08-24T09:24:24;7.13;;;4.18;;
70545;SDS011;58098;51.680;5.134;2022-08-24T09:27:15;9.38;;;4.80;;
70545;SDS011;58098;51.680;5.134;2022-08-24T09:29:53;6.07;;;3.53;;
70545;SDS011;58098;51.680;5.134;2022-08-24T09:32:28;5.63;;;4.20;;
70545;SDS011;58098;51.680;5.134;2022-08-24T09:35:00;8.48;;;4.38;;
70545;SDS011;58098;51.680;5.134;2022-08-24T09:37:50;8.18;;;4.45;;
70545;SDS011;58098;51.680;5.134;2022-08-24T09:45:40;7.17;;;3.67;;
70545;SDS011;58098;51.680;5.134;2022-08-24T09:51:04;11.23;;;4.25;;
70545;SDS011;58098;51.680;5.134;2022-08-24T09:56:04;9.85;;;4.18;;
70545;SDS011;58098;51.680;5.134;2022-08-24T09:58:52;9.67;;;3.53;;
70545;SDS011;58098;51.680;5.134;2022-08-24T10:06:35;7.80;;;3.85;;
70545;SDS011;58098;51.680;5.134;2022-08-24T10:11:52;8.73;;;3.15;;
70545;SDS011;58098;51.680;5.134;2022-08-24T10:21:50;5.73;;;2.60;;
70545;SDS011;58098;51.680;5.134;2022-08-24T10:27:07;6.82;;;2.40;;
70545;SDS011;58098;51.680;5.134;2022-08-24T10:29:59;2.95;;;2.30;;
70545;SDS011;58098;51.680;5.134;2022-08-24T10:32:36;5.50;;;1.90;;
70545;SDS011;58098;51.680;5.134;2022-08-24T10:35:04;4.70;;;2.17;;
70545;SDS011;58098;51.680;5.134;2022-08-24T10:40:17;4.40;;;2.88;;
70545;SDS011;58098;51.680;5.134;2022-08-24T10:43:09;7.47;;;2.70;;
70545;SDS011;58098;51.680;5.134;2022-08-24T10:48:48;4.05;;;2.30;;
70545;SDS011;58098;51.680;5.134;2022-08-24T10:54:04;4.40;;;2.30;;
70545;SDS011;58098;51.680;5.134;2022-08-24T10:59:10;8.00;;;2.47;;
70545;SDS011;58098;51.680;5.134;2022-08-24T11:01:39;4.90;;;2.40;;
70545;SDS011;58098;51.680;5.134;2022-08-24T11:04:25;6.28;;;2.55;;
70545;SDS011;58098;51.680;5.134;2022-08-24T11:07:06;3.90;;;1.90;;
70545;SDS011;58098;51.680;5.134;2022-08-24T11:09:41;4.35;;;2.08;;
70545;SDS011;58098;51.680;5.134;2022-08-24T11:12:15;3.90;;;2.60;;
70545;SDS011;58098;51.680;5.134;2022-08-24T11:14:45;8.40;;;2.33;;
70545;SDS011;58098;51.680;5.134;2022-08-24T11:17:12;6.07;;;2.45;;
70545;SDS011;58098;51.680;5.134;2022-08-24T11:19:38;3.40;;;2.17;;
70545;SDS011;58098;51.680;5.134;2022-08-24T11:22:04;5.57;;;2.40;;
70545;SDS011;58098;51.680;5.134;2022-08-24T11:24:37;5.70;;;2.45;;
70545;SDS011;58098;51.680;5.134;2022-08-24T11:27:05;3.90;;;2.10;;
70545;SDS011;58098;51.680;5.134;2022-08-24T11:35:00;5.70;;;1.90;;
70545;SDS011;58098;51.680;5.134;2022-08-24T11:37:33;2.30;;;1.90;;
70545;SDS011;58098;51.680;5.134;2022-08-24T11:39:59;3.07;;;2.00;;
70545;SDS011;58098;51.680;5.134;2022-08-24T11:45:09;4.10;;;2.15;;
70545;SDS011;58098;51.680;5.134;2022-08-24T11:50:35;2.83;;;1.75;;
70545;SDS011;58098;51.680;5.134;2022-08-24T11:55:32;5.10;;;1.67;;
70545;SDS011;58098;51.680;5.134;2022-08-24T12:00:54;3.85;;;1.50;;
70545;SDS011;58098;51.680;5.134;2022-08-24T12:05:52;2.25;;;1.40;;
70545;SDS011;58098;51.680;5.134;2022-08-24T12:08:38;3.03;;;1.40;;
70545;SDS011;58098;51.680;5.134;2022-08-24T12:11:12;4.68;;;1.60;;
70545;SDS011;58098;51.680;5.134;2022-08-24T12:14:00;3.47;;;1.95;;
70545;SDS011;58098;51.680;5.134;2022-08-24T12:16:31;4.63;;;1.80;;
70545;SDS011;58098;51.680;5.134;2022-08-24T12:19:01;4.68;;;2.08;;
70545;SDS011;58098;51.680;5.134;2022-08-24T12:21:29;8.13;;;2.10;;
70545;SDS011;58098;51.680;5.134;2022-08-24T12:27:03;2.05;;;1.70;;
70545;SDS011;58098;51.680;5.134;2022-08-24T12:29:34;5.90;;;1.70;;
70545;SDS011;58098;51.680;5.134;2022-08-24T12:32:20;5.43;;;1.88;;
70545;SDS011;58098;51.680;5.134;2022-08-24T12:34:49;2.70;;;2.10;;
70545;SDS011;58098;51.680;5.134;2022-08-24T12:45:28;4.75;;;1.90;;
70545;SDS011;58098;51.680;5.134;2022-08-24T12:53:01;3.47;;;2.40;;
70545;SDS011;58098;51.680;5.134;2022-08-24T12:55:38;3.07;;;2.10;;
70545;SDS011;58098;51.680;5.134;2022-08-24T13:00:56;4.82;;;2.00;;
70545;SDS011;58098;51.680;5.134;2022-08-24T13:03:23;4.57;;;2.20;;
70545;SDS011;58098;51.680;5.134;2022-08-24T13:05:50;2.65;;;2.03;;
70545;SDS011;58098;51.680;5.134;2022-08-24T13:11:04;3.95;;;2.25;;
70545;SDS011;58098;51.680;5.134;2022-08-24T13:16:07;2.63;;;2.00;;
70545;SDS011;58098;51.680;5.134;2022-08-24T13:18:47;6.80;;;1.80;;
70545;SDS011;58098;51.680;5.134;2022-08-24T13:21:15;6.03;;;2.20;;
70545;SDS011;58098;51.680;5.134;2022-08-24T13:23:41;4.70;;;2.03;;
70545;SDS011;58098;51.680;5.134;2022-08-24T13:26:22;3.93;;;2.00;;
70545;SDS011;58098;51.680;5.134;2022-08-24T13:28:48;6.43;;;2.03;;
70545;SDS011;58098;51.680;5.134;2022-08-24T13:31:35;5.85;;;2.15;;
70545;SDS011;58098;51.680;5.134;2022-08-24T13:36:39;5.32;;;2.47;;
70545;SDS011;58098;51.680;5.134;2022-08-24T13:39:22;4.60;;;2.00;;
70545;SDS011;58098;51.680;5.134;2022-08-24T13:42:08;4.25;;;1.92;;
70545;SDS011;58098;51.680;5.134;2022-08-24T13:49:31;3.30;;;2.55;;
70545;SDS011;58098;51.680;5.134;2022-08-24T13:52:12;3.40;;;2.22;;
70545;SDS011;58098;51.680;5.134;2022-08-24T13:55:02;5.07;;;2.08;;
70545;SDS011;58098;51.680;5.134;2022-08-24T13:59:57;4.20;;;2.00;;
70545;SDS011;58098;51.680;5.134;2022-08-24T14:02:42;5.40;;;2.07;;
70545;SDS011;58098;51.680;5.134;2022-08-24T14:07:52;3.58;;;2.30;;
70545;SDS011;58098;51.680;5.134;2022-08-24T14:10:32;6.43;;;2.08;;
70545;SDS011;58098;51.680;5.134;2022-08-24T14:15:43;5.30;;;2.20;;
70545;SDS011;58098;51.680;5.134;2022-08-24T14:18:27;8.13;;;2.20;;
70545;SDS011;58098;51.680;5.134;2022-08-24T14:21:01;5.13;;;2.08;;
70545;SDS011;58098;51.680;5.134;2022-08-24T14:28:42;2.77;;;2.00;;
70545;SDS011;58098;51.680;5.134;2022-08-24T14:31:15;5.40;;;2.50;;
70545;SDS011;58098;51.680;5.134;2022-08-24T14:33:43;4.22;;;2.20;;
70545;SDS011;58098;51.680;5.134;2022-08-24T14:36:56;3.67;;;1.95;;
70545;SDS011;58098;51.680;5.134;2022-08-24T14:39:00;4.70;;;2.28;;
70545;SDS011;58098;51.680;5.134;2022-08-24T14:41:33;7.97;;;1.93;;
70545;SDS011;58098;51.680;5.134;2022-08-24T14:44:06;3.50;;;2.00;;
70545;SDS011;58098;51.680;5.134;2022-08-24T15:04:46;5.10;;;2.40;;
70545;SDS011;58098;51.680;5.134;2022-08-24T15:09:49;3.10;;;1.85;;
70545;SDS011;58098;51.680;5.134;2022-08-24T15:14:54;10.43;;;2.55;;
70545;SDS011;58098;51.680;5.134;2022-08-24T15:17:25;6.47;;;2.05;;
70545;SDS011;58098;51.680;5.134;2022-08-24T15:22:21;7.53;;;2.30;;
70545;SDS011;58098;51.680;5.134;2022-08-24T15:24:56;2.77;;;2.10;;
70545;SDS011;58098;51.680;5.134;2022-08-24T15:30:00;5.78;;;2.45;;
70545;SDS011;58098;51.680;5.134;2022-08-24T15:32:39;3.78;;;1.95;;
70545;SDS011;58098;51.680;5.134;2022-08-24T15:35:05;6.63;;;1.95;;
70545;SDS011;58098;51.680;5.134;2022-08-24T15:37:32;5.43;;;2.10;;
70545;SDS011;58098;51.680;5.134;2022-08-24T15:39:58;3.97;;;2.00;;
70545;SDS011;58098;51.680;5.134;2022-08-24T15:42:24;4.50;;;2.13;;
70545;SDS011;58098;51.680;5.134;2022-08-24T15:44:50;2.08;;;1.83;;
70545;SDS011;58098;51.680;5.134;2022-08-24T15:47:20;5.53;;;2.00;;
70545;SDS011;58098;51.680;5.134;2022-08-24T15:49:49;6.07;;;2.33;;
70545;SDS011;58098;51.680;5.134;2022-08-24T15:54:59;4.13;;;1.90;;
70545;SDS011;58098;51.680;5.134;2022-08-24T15:57:28;9.73;;;2.20;;
70545;SDS011;58098;51.680;5.134;2022-08-24T15:59:57;6.38;;;2.20;;
70545;SDS011;58098;51.680;5.134;2022-08-24T16:02:29;6.28;;;1.98;;
70545;SDS011;58098;51.680;5.134;2022-08-24T16:07:31;3.37;;;2.10;;
70545;SDS011;58098;51.680;5.134;2022-08-24T16:10:08;4.78;;;2.33;;
70545;SDS011;58098;51.680;5.134;2022-08-24T16:12:34;5.38;;;2.33;;
70545;SDS011;58098;51.680;5.134;2022-08-24T16:15:16;6.67;;;2.47;;
70545;SDS011;58098;51.680;5.134;2022-08-24T16:17:44;2.67;;;2.00;;
70545;SDS011;58098;51.680;5.134;2022-08-24T16:20:13;4.45;;;2.22;;
70545;SDS011;58098;51.680;5.134;2022-08-24T16:22:51;4.38;;;2.00;;
70545;SDS011;58098;51.680;5.134;2022-08-24T16:25:37;7.70;;;2.00;;
70545;SDS011;58098;51.680;5.134;2022-08-24T16:28:05;4.72;;;2.15;;
70545;SDS011;58098;51.680;5.134;2022-08-24T16:35:58;3.15;;;2.00;;
70545;SDS011;58098;51.680;5.134;2022-08-24T16:38:24;6.17;;;2.17;;
70545;SDS011;58098;51.680;5.134;2022-08-24T16:40:50;3.33;;;2.03;;
70545;SDS011;58098;51.680;5.134;2022-08-24T16:43:15;3.20;;;1.83;;
70545;SDS011;58098;51.680;5.134;2022-08-24T16:45:40;3.03;;;2.00;;
70545;SDS011;58098;51.680;5.134;2022-08-24T16:48:06;4.47;;;2.47;;
70545;SDS011;58098;51.680;5.134;2022-08-24T16:50:31;3.80;;;2.55;;
70545;SDS011;58098;51.680;5.134;2022-08-24T16:52:56;5.67;;;2.40;;
70545;SDS011;58098;51.680;5.134;2022-08-24T16:55:21;4.90;;;2.20;;
70545;SDS011;58098;51.680;5.134;2022-08-24T16:57:47;6.67;;;2.50;;
70545;SDS011;58098;51.680;5.134;2022-08-24T17:00:15;4.93;;;2.45;;
70545;SDS011;58098;51.680;5.134;2022-08-24T17:02:45;5.65;;;2.10;;
70545;SDS011;58098;51.680;5.134;2022-08-24T17:05:12;2.97;;;2.33;;
70545;SDS011;58098;51.680;5.134;2022-08-24T17:07:37;4.72;;;2.28;;
70545;SDS011;58098;51.680;5.134;2022-08-24T17:10:04;7.53;;;2.37;;
70545;SDS011;58098;51.680;5.134;2022-08-24T17:12:29;5.10;;;2.40;;
70545;SDS011;58098;51.680;5.134;2022-08-24T17:15:00;3.83;;;2.30;;
70545;SDS011;58098;51.680;5.134;2022-08-24T17:17:26;6.07;;;2.53;;
70545;SDS011;58098;51.680;5.134;2022-08-24T17:19:52;5.30;;;2.80;;
70545;SDS011;58098;51.680;5.134;2022-08-24T17:22:19;4.78;;;2.22;;
70545;SDS011;58098;51.680;5.134;2022-08-24T17:24:44;2.83;;;2.20;;
70545;SDS011;58098;51.680;5.134;2022-08-24T17:27:09;4.70;;;2.30;;
70545;SDS011;58098;51.680;5.134;2022-08-24T17:29:36;4.78;;;2.42;;